createdAt,value
2018-09-20T00:00:59.606Z,63.6
2018-09-20T00:01:59.761Z,63.25
2018-09-20T00:02:59.628Z,63.39
2018-09-20T00:03:59.893Z,63.36
2018-09-20T00:04:59.841Z,63.54
2018-09-20T00:06:00.044Z,63.46
2018-09-20T00:06:59.732Z,63.49
2018-09-20T00:07:59.968Z,63.47
2018-09-20T00:08:59.714Z,63.68
2018-09-20T00:09:59.813Z,63.42
2018-09-20T00:10:59.912Z,63.57
2018-09-20T00:12:00.183Z,63.61
2018-09-20T00:12:59.900Z,63.4
2018-09-20T00:13:59.763Z,63.81
2018-09-20T00:14:59.653Z,63.45
2018-09-20T00:15:59.679Z,63.6
2018-09-20T00:16:59.726Z,63.48
2018-09-20T00:18:00.033Z,63.19
2018-09-20T00:18:59.726Z,63.73
2018-09-20T00:19:59.753Z,63.84
2018-09-20T00:20:59.704Z,63.31
2018-09-20T00:21:59.626Z,63.51
2018-09-20T00:22:59.532Z,63.63
2018-09-20T00:23:59.818Z,63.44
2018-09-20T00:24:59.938Z,63.48
2018-09-20T00:25:59.818Z,63.16
2018-09-20T00:26:59.969Z,63.56
2018-09-20T00:27:59.713Z,63.16
2018-09-20T00:28:59.717Z,63.49
2018-09-20T00:29:59.754Z,63.64
2018-09-20T00:30:59.754Z,63.87
2018-09-20T00:31:59.919Z,63.28
2018-09-20T00:32:59.803Z,63.44
2018-09-20T00:33:59.671Z,63.26
2018-09-20T00:34:59.910Z,63.45
2018-09-20T00:35:59.897Z,63.61
2018-09-20T00:36:59.615Z,63.68
2018-09-20T00:37:59.850Z,63.58
2018-09-20T00:38:59.948Z,63.54
2018-09-20T00:39:59.672Z,63.59
2018-09-20T00:40:59.835Z,63.64
2018-09-20T00:41:59.633Z,63.32
2018-09-20T00:42:59.944Z,63.55
2018-09-20T00:43:59.638Z,63.41
2018-09-20T00:44:59.742Z,63.27
2018-09-20T00:45:59.636Z,63.31
2018-09-20T00:46:59.738Z,63.31
2018-09-20T00:47:59.578Z,63.49
2018-09-20T00:48:59.566Z,63.28
2018-09-20T00:49:59.843Z,63.01
2018-09-20T00:51:00.209Z,63.39
2018-09-20T00:51:59.683Z,63.22
2018-09-20T00:52:59.772Z,63.78
2018-09-20T00:54:00.490Z,63.53
2018-09-20T00:55:00.170Z,63.38
2018-09-20T00:56:00.042Z,63.79
2018-09-20T00:56:59.651Z,63.26
2018-09-20T00:57:59.658Z,63.65
2018-09-20T00:58:59.689Z,63.44
2018-09-20T00:59:59.846Z,63.33
2018-09-20T01:00:59.660Z,63.63
2018-09-20T01:02:00.159Z,63.48
2018-09-20T01:02:59.643Z,63.49
2018-09-20T01:04:00.133Z,63.76
2018-09-20T01:04:59.971Z,63.48
2018-09-20T01:05:59.573Z,63.43
2018-09-20T01:06:59.719Z,63.49
2018-09-20T01:07:59.759Z,63.64
2018-09-20T01:08:59.690Z,63.4
2018-09-20T01:09:59.560Z,63.65
2018-09-20T01:10:59.752Z,63.35
2018-09-20T01:11:59.699Z,63.54
2018-09-20T01:12:59.658Z,63.65
2018-09-20T01:13:59.783Z,63.57
2018-09-20T01:14:59.890Z,63.36
2018-09-20T01:15:59.756Z,63.59
2018-09-20T01:16:59.739Z,63.42
2018-09-20T01:17:59.852Z,63.59
2018-09-20T01:18:59.663Z,63.58
2018-09-20T01:19:59.777Z,63.42
2018-09-20T01:20:59.618Z,63.56
2018-09-20T01:21:59.735Z,63.48
2018-09-20T01:22:59.639Z,63.44
2018-09-20T01:23:59.613Z,63.49
2018-09-20T01:24:59.743Z,63.56
2018-09-20T01:25:59.678Z,63.5
2018-09-20T01:26:59.704Z,63.35
2018-09-20T01:27:59.658Z,63.6
2018-09-20T01:28:59.802Z,63.3
2018-09-20T01:29:59.915Z,63.38
2018-09-20T01:30:59.598Z,63.46
2018-09-20T01:31:59.738Z,63.44
2018-09-20T01:32:59.682Z,63.43
2018-09-20T01:34:00.063Z,63.43
2018-09-20T01:34:59.622Z,63.4
2018-09-20T01:35:59.649Z,63.64
2018-09-20T01:36:59.546Z,63.63
2018-09-20T01:37:59.864Z,63.54
2018-09-20T01:38:59.596Z,63.39
2018-09-20T01:39:59.571Z,63.59
2018-09-20T01:40:59.748Z,63.52
2018-09-20T01:41:59.645Z,63.54
2018-09-20T01:42:59.668Z,63.31
2018-09-20T01:43:59.606Z,63.38
2018-09-20T01:44:59.713Z,63.56
2018-09-20T01:45:59.730Z,63.4
2018-09-20T01:46:59.685Z,63.5
2018-09-20T01:47:59.875Z,63.43
2018-09-20T01:48:59.654Z,63.31
2018-09-20T01:49:59.746Z,63.57
2018-09-20T01:50:59.590Z,63.45
2018-09-20T01:51:59.850Z,63.47
2018-09-20T01:52:59.895Z,63.39
2018-09-20T01:53:59.950Z,63.54
2018-09-20T01:54:59.667Z,63.45
2018-09-20T01:55:59.818Z,63.47
2018-09-20T01:56:59.910Z,63.42
2018-09-20T01:57:59.798Z,63.32
2018-09-20T01:58:59.765Z,63.37
2018-09-20T01:59:59.870Z,63.42
2018-09-20T02:00:59.826Z,63.51
2018-09-20T02:01:59.832Z,63.39
2018-09-20T02:02:59.630Z,63.4
2018-09-20T02:03:59.814Z,63.55
2018-09-20T02:04:59.834Z,63.7
2018-09-20T02:05:59.593Z,63.5
2018-09-20T02:06:59.746Z,63.51
2018-09-20T02:07:59.695Z,63.48
2018-09-20T02:08:59.669Z,63.37
2018-09-20T02:10:00.125Z,63.48
2018-09-20T02:10:59.555Z,63.47
2018-09-20T02:11:59.801Z,63.61
2018-09-20T02:12:59.781Z,63.51
2018-09-20T02:13:59.724Z,63.51
2018-09-20T02:14:59.857Z,63.33
2018-09-20T02:15:59.525Z,63.45
2018-09-20T02:16:59.768Z,63.43
2018-09-20T02:17:59.688Z,63.48
2018-09-20T02:18:59.553Z,63.34
2018-09-20T02:19:59.572Z,63.4
2018-09-20T02:20:59.710Z,63.36
2018-09-20T02:21:59.601Z,63.42
2018-09-20T02:22:59.662Z,63.5
2018-09-20T02:24:00.000Z,63.53
2018-09-20T02:24:59.689Z,63.46
2018-09-20T02:25:59.633Z,63.62
2018-09-20T02:26:59.915Z,63.34
2018-09-20T02:27:59.746Z,63.39
2018-09-20T02:28:59.560Z,63.37
2018-09-20T02:29:59.635Z,63.52
2018-09-20T02:30:59.853Z,63.42
2018-09-20T02:31:59.578Z,63.81
2018-09-20T02:32:59.706Z,63.32
2018-09-20T02:33:59.788Z,63.5
2018-09-20T02:34:59.746Z,63.73
2018-09-20T02:35:59.633Z,63.45
2018-09-20T02:36:59.628Z,63.39
2018-09-20T02:37:59.611Z,63.24
2018-09-20T02:38:59.717Z,63.32
2018-09-20T02:39:59.852Z,63.47
2018-09-20T02:40:59.647Z,63.67
2018-09-20T02:41:59.719Z,63.26
2018-09-20T02:42:59.622Z,63.74
2018-09-20T02:43:59.627Z,63.41
2018-09-20T02:44:59.645Z,63.55
2018-09-20T02:45:59.962Z,63.8
2018-09-20T02:46:59.680Z,63.4
2018-09-20T02:47:59.686Z,63.24
2018-09-20T02:48:59.705Z,63.37
2018-09-20T02:49:59.715Z,63.35
2018-09-20T02:50:59.685Z,63.39
2018-09-20T02:51:59.740Z,63.41
2018-09-20T02:52:59.587Z,63.54
2018-09-20T02:54:00.134Z,63.23
2018-09-20T02:54:59.662Z,63.47
2018-09-20T02:55:59.678Z,63.44
2018-09-20T02:56:59.616Z,63.48
2018-09-20T02:57:59.725Z,63.3
2018-09-20T02:58:59.784Z,63.48
2018-09-20T02:59:59.658Z,63.41
2018-09-20T03:00:59.719Z,63.55
2018-09-20T03:01:59.557Z,63.34
2018-09-20T03:02:59.880Z,63.45
2018-09-20T03:03:59.709Z,63.63
2018-09-20T03:04:59.796Z,63.18
2018-09-20T03:05:59.781Z,63.33
2018-09-20T03:06:59.667Z,63.46
2018-09-20T03:07:59.662Z,63.38
2018-09-20T03:08:59.749Z,63.4
2018-09-20T03:09:59.679Z,63.48
2018-09-20T03:10:59.691Z,63.61
2018-09-20T03:11:59.914Z,63.32
2018-09-20T03:12:59.536Z,63.35
2018-09-20T03:13:59.990Z,63.47
2018-09-20T03:14:59.651Z,63.36
2018-09-20T03:15:59.988Z,63.19
2018-09-20T03:16:59.532Z,63.59
2018-09-20T03:17:59.766Z,63.46
2018-09-20T03:18:59.734Z,63.42
2018-09-20T03:19:59.868Z,63.46
2018-09-20T03:20:59.702Z,63.27
2018-09-20T03:21:59.502Z,63.45
2018-09-20T03:22:59.808Z,63.28
2018-09-20T03:23:59.789Z,63.4
2018-09-20T03:24:59.734Z,63.32
2018-09-20T03:25:59.879Z,63.24
2018-09-20T03:26:59.776Z,63.41
2018-09-20T03:27:59.626Z,63.55
2018-09-20T03:28:59.476Z,63.51
2018-09-20T03:29:59.819Z,63.36
2018-09-20T03:30:59.756Z,63.29
2018-09-20T03:31:59.910Z,63.42
2018-09-20T03:32:59.616Z,63.41
2018-09-20T03:33:59.628Z,63.28
2018-09-20T03:34:59.914Z,63.47
2018-09-20T03:35:59.719Z,63.34
2018-09-20T03:36:59.732Z,63.36
2018-09-20T03:37:59.751Z,63.46
2018-09-20T03:38:59.909Z,63.42
2018-09-20T03:39:59.597Z,63.47
2018-09-20T03:40:59.767Z,63.22
2018-09-20T03:41:59.767Z,63.29
2018-09-20T03:42:59.983Z,63.44
2018-09-20T03:43:59.673Z,63.46
2018-09-20T03:44:59.791Z,63.52
2018-09-20T03:45:59.710Z,63.55
2018-09-20T03:46:59.663Z,63.18
2018-09-20T03:47:59.568Z,63.42
2018-09-20T03:48:59.873Z,63.28
2018-09-20T03:49:59.702Z,63.22
2018-09-20T03:50:59.799Z,63.42
2018-09-20T03:51:59.716Z,63.3
2018-09-20T03:52:59.708Z,63.26
2018-09-20T03:53:59.588Z,63.18
2018-09-20T03:54:59.599Z,63.17
2018-09-20T03:55:59.579Z,63.07
2018-09-20T03:56:59.671Z,63.14
2018-09-20T03:57:59.726Z,63.5
2018-09-20T03:58:59.583Z,63.38
2018-09-20T03:59:59.634Z,63.14
2018-09-20T04:00:59.721Z,63.4
2018-09-20T04:01:59.604Z,63.4
2018-09-20T04:02:59.743Z,63.68
2018-09-20T04:03:59.720Z,63.22
2018-09-20T04:04:59.717Z,63.26
2018-09-20T04:05:59.608Z,63.47
2018-09-20T04:06:59.889Z,63.17
2018-09-20T04:07:59.637Z,63.55
2018-09-20T04:08:59.780Z,63.38
2018-09-20T04:09:59.837Z,63.54
2018-09-20T04:10:59.716Z,63.41
2018-09-20T04:11:59.972Z,63.4
2018-09-20T04:12:59.683Z,63.56
2018-09-20T04:13:59.657Z,63.09
2018-09-20T04:14:59.890Z,63.41
2018-09-20T04:15:59.875Z,63.44
2018-09-20T04:16:59.784Z,63.19
2018-09-20T04:17:59.898Z,63.56
2018-09-20T04:19:00.035Z,63.23
2018-09-20T04:19:59.674Z,63.33
2018-09-20T04:20:59.796Z,63.57
2018-09-20T04:21:59.663Z,63.54
2018-09-20T04:22:59.755Z,63.34
2018-09-20T04:23:59.685Z,63.37
2018-09-20T04:24:59.644Z,63.4
2018-09-20T04:25:59.743Z,63.55
2018-09-20T04:26:59.772Z,63.32
2018-09-20T04:27:59.606Z,62.95
2018-09-20T04:28:59.664Z,63.25
2018-09-20T04:29:59.891Z,63.34
2018-09-20T04:30:59.888Z,63.38
2018-09-20T04:31:59.629Z,63.16
2018-09-20T04:32:59.782Z,63.37
2018-09-20T04:33:59.639Z,63.23
2018-09-20T04:34:59.733Z,63.41
2018-09-20T04:35:59.784Z,63.57
2018-09-20T04:36:59.678Z,63.32
2018-09-20T04:37:59.631Z,63.31
2018-09-20T04:38:59.650Z,63.31
2018-09-20T04:39:59.724Z,63.53
2018-09-20T04:40:59.643Z,63.31
2018-09-20T04:41:59.612Z,63.3
2018-09-20T04:42:59.683Z,63.43
2018-09-20T04:43:59.878Z,63.35
2018-09-20T04:44:59.558Z,63.2
2018-09-20T04:45:59.902Z,63.39
2018-09-20T04:46:59.791Z,63.38
2018-09-20T04:47:59.925Z,63.29
2018-09-20T04:48:59.842Z,63.27
2018-09-20T04:50:00.140Z,63.28
2018-09-20T04:50:59.652Z,63.43
2018-09-20T04:51:59.672Z,63.38
2018-09-20T04:53:00.571Z,63.58
2018-09-20T04:53:59.845Z,63.51
2018-09-20T04:54:59.713Z,63.24
2018-09-20T04:55:59.479Z,63.52
2018-09-20T04:56:59.585Z,63.23
2018-09-20T04:57:59.895Z,63.28
2018-09-20T04:58:59.645Z,63.3
2018-09-20T04:59:59.849Z,63.25
2018-09-20T05:00:59.685Z,63.26
2018-09-20T05:01:59.663Z,63.46
2018-09-20T05:02:59.651Z,63.17
2018-09-20T05:03:59.663Z,63.56
2018-09-20T05:04:59.755Z,63.64
2018-09-20T05:05:59.688Z,63.07
2018-09-20T05:06:59.728Z,63.56
2018-09-20T05:07:59.669Z,63.27
2018-09-20T05:08:59.529Z,63.21
2018-09-20T05:09:59.957Z,63.41
2018-09-20T05:10:59.628Z,63.32
2018-09-20T05:11:59.669Z,63.68
2018-09-20T05:12:59.550Z,63.76
2018-09-20T05:13:59.675Z,63.52
2018-09-20T05:14:59.637Z,63.2
2018-09-20T05:15:59.680Z,63.29
2018-09-20T05:16:59.765Z,63.5
2018-09-20T05:17:59.589Z,63.25
2018-09-20T05:18:59.590Z,63.4
2018-09-20T05:19:59.541Z,63.68
2018-09-20T05:20:59.714Z,63.58
2018-09-20T05:21:59.448Z,63.23
2018-09-20T05:22:59.673Z,63.16
2018-09-20T05:23:59.541Z,63.53
2018-09-20T05:24:59.670Z,63.55
2018-09-20T05:25:59.574Z,63.42
2018-09-20T05:26:59.610Z,63.56
2018-09-20T05:27:59.579Z,63.23
2018-09-20T05:28:59.483Z,63.16
2018-09-20T05:29:59.607Z,63.42
2018-09-20T05:30:59.566Z,63.3
2018-09-20T05:31:59.448Z,63.68
2018-09-20T05:32:59.747Z,63.17
2018-09-20T05:33:59.547Z,63.53
2018-09-20T05:34:59.940Z,63.34
2018-09-20T05:35:59.492Z,63.29
2018-09-20T05:36:59.588Z,63.36
2018-09-20T05:37:59.634Z,63.63
2018-09-20T05:39:00.003Z,63.4
2018-09-20T05:39:59.874Z,63.09
2018-09-20T05:41:00.111Z,63.4
2018-09-20T05:41:59.643Z,63.47
2018-09-20T05:42:59.703Z,63.43
2018-09-20T05:43:59.591Z,63.23
2018-09-20T05:44:59.629Z,63.33
2018-09-20T05:45:59.581Z,63.56
2018-09-20T05:46:59.657Z,63.44
2018-09-20T05:47:59.719Z,63.23
2018-09-20T05:48:59.646Z,63.28
2018-09-20T05:49:59.522Z,63.27
2018-09-20T05:50:59.749Z,63.44
2018-09-20T05:51:59.767Z,63.44
2018-09-20T05:52:59.747Z,63.42
2018-09-20T05:53:59.430Z,63.47
2018-09-20T05:54:59.852Z,63.3
2018-09-20T05:55:59.592Z,63.3
2018-09-20T05:56:59.441Z,63.32
2018-09-20T05:57:59.525Z,63.36
2018-09-20T05:58:59.898Z,63.33
2018-09-20T05:59:59.714Z,63.49
2018-09-20T06:00:59.447Z,63.41
2018-09-20T06:01:59.666Z,63.17
2018-09-20T06:02:59.738Z,63.45
2018-09-20T06:03:59.808Z,63.29
2018-09-20T06:04:59.866Z,63.23
2018-09-20T06:05:59.918Z,63.19
2018-09-20T06:06:59.765Z,63.35
2018-09-20T06:07:59.633Z,63.45
2018-09-20T06:08:59.677Z,63.38
2018-09-20T06:09:59.800Z,63.53
2018-09-20T06:10:59.623Z,63.17
2018-09-20T06:11:59.692Z,63.53
2018-09-20T06:12:59.575Z,63.56
2018-09-20T06:13:59.647Z,63.53
2018-09-20T06:14:59.824Z,63.42
2018-09-20T06:15:59.680Z,63.76
2018-09-20T06:16:59.770Z,63.9
2018-09-20T06:17:59.734Z,64.58
2018-09-20T06:18:59.728Z,64.52
2018-09-20T06:19:59.676Z,64.51
2018-09-20T06:20:59.744Z,64.63
2018-09-20T06:21:59.744Z,64.83
2018-09-20T06:22:59.606Z,64.99
2018-09-20T06:23:59.440Z,65.42
2018-09-20T06:24:59.788Z,65.24
2018-09-20T06:25:59.599Z,65.16
2018-09-20T06:26:59.623Z,65.04
2018-09-20T06:27:59.928Z,64.91
2018-09-20T06:28:59.463Z,64.65
2018-09-20T06:29:59.565Z,64.62
2018-09-20T06:30:59.759Z,64.61
2018-09-20T06:31:59.586Z,64.57
2018-09-20T06:32:59.518Z,64.43
2018-09-20T06:33:59.621Z,64.76
2018-09-20T06:34:59.702Z,64.4
2018-09-20T06:35:59.783Z,64.44
2018-09-20T06:36:59.817Z,64.5
2018-09-20T06:37:59.637Z,64.5
2018-09-20T06:38:59.549Z,64.15
2018-09-20T06:39:59.599Z,64.42
2018-09-20T06:40:59.813Z,64.29
2018-09-20T06:41:59.609Z,64.29
2018-09-20T06:42:59.470Z,64.19
2018-09-20T06:43:59.648Z,64.64
2018-09-20T06:44:59.439Z,64.45
2018-09-20T06:45:59.545Z,64.34
2018-09-20T06:46:59.590Z,64.28
2018-09-20T06:47:59.474Z,64.34
2018-09-20T06:48:59.476Z,64.64
2018-09-20T06:49:59.854Z,64.21
2018-09-20T06:50:59.532Z,64.51
2018-09-20T06:51:59.597Z,64.44
2018-09-20T06:52:59.667Z,64.4
2018-09-20T06:53:59.662Z,64.35
2018-09-20T06:54:59.439Z,64.37
2018-09-20T06:55:59.553Z,64.54
2018-09-20T06:57:00.037Z,64.37
2018-09-20T06:57:59.625Z,64.5
2018-09-20T06:58:59.406Z,64.32
2018-09-20T06:59:59.403Z,64.69
2018-09-20T07:00:59.679Z,64.55
2018-09-20T07:01:59.591Z,64.34
2018-09-20T07:02:59.617Z,64.82
2018-09-20T07:03:59.622Z,64.61
2018-09-20T07:04:59.773Z,64.49
2018-09-20T07:05:59.552Z,64.49
2018-09-20T07:06:59.816Z,64.56
2018-09-20T07:07:59.645Z,64.32
2018-09-20T07:08:59.472Z,64.36
2018-09-20T07:09:59.691Z,64.38
2018-09-20T07:10:59.660Z,64.57
2018-09-20T07:11:59.761Z,64.28
2018-09-20T07:12:59.653Z,64.48
2018-09-20T07:13:59.608Z,64.31
2018-09-20T07:14:59.650Z,64.23
2018-09-20T07:15:59.943Z,64.18
2018-09-20T07:16:59.649Z,64.41
2018-09-20T07:17:59.427Z,64.23
2018-09-20T07:18:59.673Z,64.18
2018-09-20T07:19:59.627Z,64.33
2018-09-20T07:20:59.520Z,64.06
2018-09-20T07:21:59.563Z,64.16
2018-09-20T07:22:59.791Z,64.08
2018-09-20T07:24:00.092Z,63.9
2018-09-20T07:25:00.015Z,64.15
2018-09-20T07:25:59.560Z,63.92
2018-09-20T07:26:59.616Z,63.94
2018-09-20T07:27:59.887Z,64.03
2018-09-20T07:28:59.944Z,64.23
2018-09-20T07:29:59.623Z,64.03
2018-09-20T07:30:59.639Z,64.2
2018-09-20T07:31:59.440Z,64.02
2018-09-20T07:32:59.736Z,64.18
2018-09-20T07:33:59.619Z,64.08
2018-09-20T07:34:59.603Z,64.22
2018-09-20T07:35:59.579Z,64.17
2018-09-20T07:36:59.888Z,64.06
2018-09-20T07:37:59.577Z,64.08
2018-09-20T07:38:59.543Z,64.04
2018-09-20T07:39:59.462Z,64.04
2018-09-20T07:40:59.404Z,64.2
2018-09-20T07:41:59.625Z,64.4
2018-09-20T07:42:59.448Z,64.02
2018-09-20T07:43:59.440Z,64.19
2018-09-20T07:44:59.574Z,64.03
2018-09-20T07:45:59.472Z,64.08
2018-09-20T07:46:59.412Z,64.53
2018-09-20T07:47:59.658Z,64.55
2018-09-20T07:48:59.768Z,64.54
2018-09-20T07:49:59.685Z,64.44
2018-09-20T07:50:59.784Z,64.8
2018-09-20T07:51:59.719Z,64.28
2018-09-20T07:52:59.531Z,64.37
2018-09-20T07:53:59.423Z,64.34
2018-09-20T07:54:59.658Z,64.81
2018-09-20T07:55:59.607Z,64.5
2018-09-20T07:56:59.499Z,64.41
2018-09-20T07:57:59.464Z,64.18
2018-09-20T07:58:59.749Z,64.31
2018-09-20T07:59:59.725Z,64.57
2018-09-20T08:00:59.666Z,64.85
2018-09-20T08:02:00.027Z,64.65
2018-09-20T08:02:59.459Z,64.34
2018-09-20T08:03:59.865Z,64.14
2018-09-20T08:04:59.543Z,64.35
2018-09-20T08:05:59.916Z,64.61
2018-09-20T08:07:00.066Z,64.42
2018-09-20T08:07:59.645Z,64.36
2018-09-20T08:08:59.349Z,64.69
2018-09-20T08:09:59.707Z,64.58
2018-09-20T08:10:59.403Z,64.72
2018-09-20T08:11:59.768Z,64.55
2018-09-20T08:13:00.112Z,64.64
2018-09-20T08:13:59.858Z,64.53
2018-09-20T08:14:59.354Z,64.49
2018-09-20T08:15:59.739Z,64.6
2018-09-20T08:16:59.419Z,64.45
2018-09-20T08:17:59.671Z,64.36
2018-09-20T08:18:59.543Z,64.56
2018-09-20T08:19:59.599Z,64.38
2018-09-20T08:20:59.499Z,64.24
2018-09-20T08:21:59.688Z,64.03
2018-09-20T08:22:59.557Z,64.13
2018-09-20T08:23:59.851Z,64.14
2018-09-20T08:24:59.825Z,64.51
2018-09-20T08:25:59.523Z,64.27
2018-09-20T08:26:59.469Z,64.34
2018-09-20T08:27:59.449Z,64.3
2018-09-20T08:28:59.708Z,64.23
2018-09-20T08:29:59.880Z,64.46
2018-09-20T08:30:59.844Z,64.18
2018-09-20T08:31:59.682Z,64.28
2018-09-20T08:32:59.551Z,64.34
2018-09-20T08:33:59.572Z,64.57
2018-09-20T08:34:59.468Z,64.4
2018-09-20T08:35:59.621Z,64.42
2018-09-20T08:37:00.201Z,64.18
2018-09-20T08:37:59.739Z,64.68
2018-09-20T08:38:59.617Z,64.13
2018-09-20T08:39:59.733Z,64.27
2018-09-20T08:40:59.366Z,64.12
2018-09-20T08:41:59.542Z,64.65
2018-09-20T08:42:59.371Z,64.29
2018-09-20T08:43:59.807Z,64.08
2018-09-20T08:44:59.632Z,64.21
2018-09-20T08:45:59.748Z,63.9
2018-09-20T08:46:59.608Z,64.06
2018-09-20T08:47:59.532Z,64.12
2018-09-20T08:48:59.494Z,64.05
2018-09-20T08:49:59.725Z,64.09
2018-09-20T08:50:59.711Z,64.14
2018-09-20T08:51:59.557Z,64.16
2018-09-20T08:52:59.616Z,64.09
2018-09-20T08:53:59.403Z,64.01
2018-09-20T08:54:59.477Z,64.08
2018-09-20T08:55:59.639Z,64.17
2018-09-20T08:56:59.940Z,64.22
2018-09-20T08:57:59.659Z,64.32
2018-09-20T08:58:59.395Z,64.24
2018-09-20T08:59:59.377Z,64.25
2018-09-20T09:00:59.511Z,64.28
2018-09-20T09:01:59.455Z,64.19
2018-09-20T09:02:59.693Z,64.53
2018-09-20T09:03:59.522Z,64.13
2018-09-20T09:04:59.537Z,64.1
2018-09-20T09:05:59.512Z,64.09
2018-09-20T09:06:59.614Z,64.5
2018-09-20T09:07:59.538Z,64.19
2018-09-20T09:08:59.387Z,64.17
2018-09-20T09:09:59.965Z,64.37
2018-09-20T09:10:59.752Z,64.22
2018-09-20T09:11:59.968Z,64.3
2018-09-20T09:13:00.002Z,64.22
2018-09-20T09:13:59.685Z,64.22
2018-09-20T09:14:59.675Z,64.2
2018-09-20T09:15:59.372Z,64.1
2018-09-20T09:16:59.456Z,64.25
2018-09-20T09:17:59.464Z,64.06
2018-09-20T09:18:59.657Z,64.09
2018-09-20T09:19:59.592Z,63.94
2018-09-20T09:20:59.622Z,64.07
2018-09-20T09:21:59.848Z,63.88
2018-09-20T09:22:59.414Z,64.36
2018-09-20T09:23:59.962Z,64.32
2018-09-20T09:24:59.746Z,64.48
2018-09-20T09:25:59.642Z,64.06
2018-09-20T09:26:59.586Z,64.12
2018-09-20T09:27:59.412Z,64.03
2018-09-20T09:28:59.678Z,63.94
2018-09-20T09:29:59.622Z,63.89
2018-09-20T09:30:59.892Z,64.02
2018-09-20T09:31:59.400Z,64.08
2018-09-20T09:32:59.492Z,64.13
2018-09-20T09:33:59.733Z,63.92
2018-09-20T09:34:59.568Z,64.1
2018-09-20T09:35:59.612Z,63.32
2018-09-20T09:36:59.733Z,64.04
2018-09-20T09:37:59.741Z,63.83
2018-09-20T09:38:59.440Z,63.93
2018-09-20T09:39:59.647Z,64.05
2018-09-20T09:40:59.693Z,64.26
2018-09-20T09:41:59.551Z,63.93
2018-09-20T09:42:59.329Z,63.84
2018-09-20T09:43:59.788Z,64.08
2018-09-20T09:44:59.907Z,64.12
2018-09-20T09:45:59.723Z,64.05
2018-09-20T09:46:59.486Z,64.03
2018-09-20T09:47:59.845Z,64.2
2018-09-20T09:48:59.579Z,64.03
2018-09-20T09:49:59.527Z,63.93
2018-09-20T09:50:59.715Z,63.94
2018-09-20T09:51:59.842Z,63.89
2018-09-20T09:52:59.673Z,63.71
2018-09-20T09:53:59.648Z,63.96
2018-09-20T09:54:59.357Z,63.79
2018-09-20T09:55:59.355Z,63.84
2018-09-20T09:56:59.646Z,63.79
2018-09-20T09:57:59.625Z,63.76
2018-09-20T09:58:59.715Z,63.79
2018-09-20T09:59:59.812Z,63.87
2018-09-20T10:00:59.613Z,63.69
2018-09-20T10:01:59.417Z,63.82
2018-09-20T10:03:00.033Z,63.69
2018-09-20T10:03:59.860Z,63.84
2018-09-20T10:04:59.727Z,63.79
2018-09-20T10:05:59.511Z,63.77
2018-09-20T10:06:59.879Z,63.85
2018-09-20T10:07:59.971Z,63.85
2018-09-20T10:08:59.878Z,64.03
2018-09-20T10:09:59.754Z,63.96
2018-09-20T10:10:59.382Z,64.01
2018-09-20T10:11:59.466Z,63.97
2018-09-20T10:12:59.646Z,64.08
2018-09-20T10:13:59.691Z,64.07
2018-09-20T10:14:59.727Z,64.05
2018-09-20T10:15:59.638Z,63.85
2018-09-20T10:16:59.674Z,63.78
2018-09-20T10:17:59.462Z,64.07
2018-09-20T10:18:59.481Z,64.04
2018-09-20T10:19:59.703Z,64.05
2018-09-20T10:20:59.343Z,63.94
2018-09-20T10:21:59.393Z,63.92
2018-09-20T10:22:59.436Z,63.89
2018-09-20T10:23:59.621Z,64.05
2018-09-20T10:24:59.472Z,64.02
2018-09-20T10:25:59.411Z,64.12
2018-09-20T10:26:59.530Z,64.16
2018-09-20T10:27:59.531Z,63.81
2018-09-20T10:28:59.681Z,63.89
2018-09-20T10:29:59.576Z,63.9
2018-09-20T10:30:59.574Z,64.04
2018-09-20T10:31:59.646Z,63.89
2018-09-20T10:32:59.652Z,63.83
2018-09-20T10:33:59.773Z,63.96
2018-09-20T10:34:59.590Z,63.83
2018-09-20T10:35:59.471Z,63.94
2018-09-20T10:36:59.665Z,63.98
2018-09-20T10:37:59.774Z,63.85
2018-09-20T10:38:59.734Z,63.9
2018-09-20T10:39:59.589Z,63.67
2018-09-20T10:40:59.535Z,64.04
2018-09-20T10:41:59.393Z,63.93
2018-09-20T10:42:59.715Z,63.57
2018-09-20T10:43:59.709Z,63.63
2018-09-20T10:44:59.461Z,63.88
2018-09-20T10:45:59.732Z,63.67
2018-09-20T10:46:59.789Z,63.71
2018-09-20T10:47:59.360Z,63.76
2018-09-20T10:48:59.363Z,63.71
2018-09-20T10:49:59.591Z,63.76
2018-09-20T10:51:00.146Z,63.62
2018-09-20T10:51:59.507Z,63.87
2018-09-20T10:52:59.436Z,63.64
2018-09-20T10:53:59.893Z,63.69
2018-09-20T10:54:59.511Z,63.76
2018-09-20T10:55:59.413Z,63.77
2018-09-20T10:56:59.751Z,63.58
2018-09-20T10:57:59.632Z,63.72
2018-09-20T10:58:59.516Z,63.59
2018-09-20T10:59:59.723Z,63.61
2018-09-20T11:00:59.836Z,63.75
2018-09-20T11:01:59.684Z,63.87
2018-09-20T11:02:59.971Z,63.61
2018-09-20T11:03:59.356Z,63.67
2018-09-20T11:04:59.806Z,63.76
2018-09-20T11:05:59.776Z,63.7
2018-09-20T11:06:59.618Z,63.65
2018-09-20T11:07:59.608Z,63.72
2018-09-20T11:08:59.709Z,63.77
2018-09-20T11:09:59.704Z,63.51
2018-09-20T11:10:59.931Z,63.84
2018-09-20T11:11:59.497Z,63.83
2018-09-20T11:12:59.456Z,63.72
2018-09-20T11:13:59.680Z,63.65
2018-09-20T11:14:59.736Z,63.77
2018-09-20T11:15:59.886Z,63.69
2018-09-20T11:16:59.753Z,63.79
2018-09-20T11:17:59.629Z,63.63
2018-09-20T11:18:59.664Z,63.85
2018-09-20T11:19:59.310Z,63.67
2018-09-20T11:20:59.404Z,63.72
2018-09-20T11:21:59.429Z,63.43
2018-09-20T11:22:59.689Z,63.61
2018-09-20T11:23:59.794Z,63.86
2018-09-20T11:24:59.296Z,63.75
2018-09-20T11:26:00.432Z,63.74
2018-09-20T11:26:59.808Z,63.81
2018-09-20T11:27:59.479Z,63.59
2018-09-20T11:28:59.608Z,63.61
2018-09-20T11:29:59.501Z,63.83
2018-09-20T11:30:59.855Z,63.71
2018-09-20T11:31:59.345Z,63.58
2018-09-20T11:32:59.389Z,63.7
2018-09-20T11:33:59.355Z,63.7
2018-09-20T11:34:59.680Z,63.65
2018-09-20T11:35:59.783Z,63.76
2018-09-20T11:36:59.471Z,63.54
2018-09-20T11:37:59.589Z,63.51
2018-09-20T11:38:59.414Z,63.69
2018-09-20T11:39:59.478Z,63.58
2018-09-20T11:40:59.317Z,63.77
2018-09-20T11:41:59.376Z,63.77
2018-09-20T11:42:59.631Z,63.7
2018-09-20T11:43:59.706Z,63.72
2018-09-20T11:44:59.601Z,63.92
2018-09-20T11:45:59.384Z,63.83
2018-09-20T11:46:59.400Z,63.75
2018-09-20T11:47:59.277Z,63.84
2018-09-20T11:48:59.571Z,63.9
2018-09-20T11:49:59.497Z,63.66
2018-09-20T11:50:59.457Z,63.81
2018-09-20T11:51:59.363Z,63.63
2018-09-20T11:52:59.416Z,63.89
2018-09-20T11:53:59.356Z,63.92
2018-09-20T11:54:59.424Z,63.67
2018-09-20T11:55:59.543Z,63.7
2018-09-20T11:56:59.474Z,63.83
2018-09-20T11:57:59.468Z,64.07
2018-09-20T11:58:59.518Z,63.44
2018-09-20T11:59:59.672Z,63.68
2018-09-20T12:00:59.976Z,64.08
2018-09-20T12:01:59.928Z,63.84
2018-09-20T12:02:59.553Z,63.66
2018-09-20T12:03:59.407Z,63.85
2018-09-20T12:04:59.685Z,63.93
2018-09-20T12:05:59.490Z,63.93
2018-09-20T12:06:59.483Z,63.72
2018-09-20T12:07:59.373Z,63.79
2018-09-20T12:08:59.545Z,63.77
2018-09-20T12:10:00.025Z,63.81
2018-09-20T12:10:59.754Z,63.8
2018-09-20T12:11:59.425Z,63.69
2018-09-20T12:12:59.896Z,63.83
2018-09-20T12:13:59.502Z,63.65
2018-09-20T12:14:59.487Z,63.67
2018-09-20T12:15:59.628Z,63.64
2018-09-20T12:16:59.424Z,63.63
2018-09-20T12:17:59.655Z,63.61
2018-09-20T12:18:59.241Z,63.86
2018-09-20T12:19:59.745Z,63.66
2018-09-20T12:20:59.672Z,63.65
2018-09-20T12:21:59.302Z,63.63
2018-09-20T12:22:59.784Z,63.64
2018-09-20T12:23:59.485Z,63.53
2018-09-20T12:24:59.705Z,63.55
2018-09-20T12:25:59.771Z,63.52
2018-09-20T12:26:59.634Z,63.57
2018-09-20T12:27:59.720Z,63.78
2018-09-20T12:28:59.721Z,63.71
2018-09-20T12:29:59.648Z,63.77
2018-09-20T12:30:59.747Z,63.82
2018-09-20T12:31:59.515Z,63.68
2018-09-20T12:32:59.598Z,63.76
2018-09-20T12:33:59.752Z,63.66
2018-09-20T12:34:59.615Z,63.68
2018-09-20T12:35:59.535Z,63.71
2018-09-20T12:36:59.311Z,63.73
2018-09-20T12:37:59.373Z,63.71
2018-09-20T12:38:59.423Z,63.8
2018-09-20T12:39:59.610Z,63.69
2018-09-20T12:40:59.508Z,63.85
2018-09-20T12:41:59.325Z,63.69
2018-09-20T12:43:00.052Z,63.76
2018-09-20T12:43:59.307Z,63.68
2018-09-20T12:44:59.490Z,63.78
2018-09-20T12:45:59.646Z,63.74
2018-09-20T12:46:59.724Z,63.74
2018-09-20T12:47:59.619Z,63.79
2018-09-20T12:48:59.575Z,63.96
2018-09-20T12:49:59.411Z,63.83
2018-09-20T12:50:59.685Z,63.69
2018-09-20T13:19:13.299Z,64.07
2018-09-20T13:20:13.525Z,63.54
2018-09-20T13:21:13.429Z,63.81
2018-09-20T13:22:13.549Z,63.65